createdAt,value
2023-11-23T00:00:55.840Z,36.20
2023-11-23T00:03:28.975Z,36.10
2023-11-23T00:06:03.914Z,36.10
2023-11-23T00:08:36.983Z,36.00
2023-11-23T00:11:11.021Z,36.20
2023-11-23T00:13:44.408Z,36.30
2023-11-23T00:16:17.573Z,36.30
2023-11-23T00:18:50.718Z,36.30
2023-11-23T00:21:25.202Z,36.30
2023-11-23T00:23:58.291Z,36.20
2023-11-23T00:26:32.792Z,36.30
2023-11-23T00:29:07.600Z,36.40
2023-11-23T00:31:40.633Z,36.40
2023-11-23T00:34:13.780Z,37.20
2023-11-23T00:36:48.226Z,37.90
2023-11-23T00:39:21.670Z,38.20
2023-11-23T00:41:54.763Z,38.70
2023-11-23T00:44:33.835Z,38.70
2023-11-23T00:47:13.043Z,39.30
2023-11-23T00:49:55.168Z,38.80
2023-11-23T00:52:36.888Z,38.80
2023-11-23T00:55:15.551Z,38.80
2023-11-23T00:57:56.735Z,38.70
2023-11-23T01:00:51.200Z,38.70
2023-11-23T01:03:26.072Z,38.70
2023-11-23T01:06:01.571Z,38.60
2023-11-23T01:08:40.421Z,38.60
2023-11-23T01:11:14.783Z,38.50
2023-11-23T01:13:56.291Z,38.50
2023-11-23T01:16:31.198Z,38.50
2023-11-23T01:19:11.066Z,38.50
2023-11-23T01:21:48.363Z,38.50
2023-11-23T01:24:25.154Z,38.60
2023-11-23T01:26:58.564Z,38.60
2023-11-23T01:29:35.501Z,38.60
2023-11-23T01:32:10.676Z,38.70
2023-11-23T01:34:43.850Z,38.70
2023-11-23T01:37:24.542Z,38.60
2023-11-23T01:40:05.551Z,38.60
2023-11-23T01:43:00.425Z,38.70
2023-11-23T01:45:41.535Z,38.60
2023-11-23T01:48:17.774Z,38.60
2023-11-23T01:50:52.491Z,38.60
2023-11-23T01:53:53.620Z,38.60
2023-11-23T01:56:52.086Z,38.60
2023-11-23T01:59:35.066Z,38.50
2023-11-23T02:02:10.683Z,38.50
2023-11-23T02:04:49.980Z,38.50
2023-11-23T02:07:30.895Z,38.40
2023-11-23T02:10:05.575Z,38.50
2023-11-23T02:12:49.917Z,38.50
2023-11-23T02:15:26.149Z,38.60
2023-11-23T02:18:14.182Z,38.50
2023-11-23T02:21:00.449Z,38.60
2023-11-23T02:23:58.728Z,38.60
2023-11-23T02:26:38.728Z,38.70
2023-11-23T02:29:13.745Z,38.60
2023-11-23T02:32:20.635Z,38.60
2023-11-23T02:34:54.154Z,38.60
2023-11-23T02:37:54.174Z,38.60
2023-11-23T02:40:29.546Z,38.50
2023-11-23T02:43:16.270Z,38.60
2023-11-23T02:45:54.660Z,38.60
2023-11-23T02:48:39.489Z,38.50
2023-11-23T02:51:19.756Z,38.50
2023-11-23T02:54:00.111Z,38.50
2023-11-23T02:56:33.709Z,38.50
2023-11-23T02:59:10.544Z,38.50
2023-11-23T03:01:46.343Z,38.80
2023-11-23T03:04:24.029Z,38.50
2023-11-23T03:06:59.461Z,38.60
2023-11-23T03:09:42.950Z,38.50
2023-11-23T03:12:19.263Z,38.50
2023-11-23T03:15:01.506Z,38.60
2023-11-23T03:17:43.348Z,38.50
2023-11-23T03:20:35.422Z,38.50
2023-11-23T03:23:15.882Z,38.60
2023-11-23T03:25:57.457Z,38.40
2023-11-23T03:28:46.109Z,38.40
2023-11-23T03:31:35.638Z,38.40
2023-11-23T03:34:08.886Z,38.50
2023-11-23T03:36:52.320Z,38.20
2023-11-23T03:40:08.937Z,38.30
2023-11-23T03:42:44.657Z,38.30
2023-11-23T03:45:19.893Z,38.30
2023-11-23T03:47:57.796Z,38.30
2023-11-23T03:50:34.084Z,38.40
2023-11-23T03:53:17.314Z,38.30
2023-11-23T03:55:58.112Z,38.40
2023-11-23T03:58:37.120Z,38.40
2023-11-23T04:01:17.895Z,38.40
2023-11-23T04:03:58.407Z,38.40
2023-11-23T04:06:31.828Z,39.00
2023-11-23T04:09:09.467Z,38.30
2023-11-23T04:11:55.688Z,38.30
2023-11-23T04:14:32.280Z,38.40
2023-11-23T04:17:11.953Z,38.30
2023-11-23T04:19:59.567Z,38.20
2023-11-23T04:22:46.789Z,38.20
2023-11-23T04:25:22.066Z,38.30
2023-11-23T04:28:01.259Z,38.20
2023-11-23T04:30:40.675Z,38.10
2023-11-23T04:33:14.394Z,38.20
2023-11-23T04:35:52.221Z,38.30
2023-11-23T04:38:36.745Z,38.20
2023-11-23T04:41:14.038Z,38.40
2023-11-23T04:44:06.701Z,38.60
2023-11-23T04:46:42.674Z,38.30
2023-11-23T04:49:18.511Z,38.20
2023-11-23T04:52:10.193Z,38.10
2023-11-23T04:55:09.350Z,38.30
2023-11-23T04:57:43.089Z,38.60
2023-11-23T05:00:17.171Z,38.00
2023-11-23T05:02:50.330Z,38.20
2023-11-23T05:05:23.449Z,38.30
2023-11-23T05:07:57.918Z,38.30
2023-11-23T05:10:30.991Z,38.30
2023-11-23T05:13:05.043Z,38.30
2023-11-23T05:15:38.107Z,38.30
2023-11-23T05:18:11.287Z,38.30
2023-11-23T05:20:44.500Z,38.30
2023-11-23T05:23:18.930Z,38.40
2023-11-23T05:25:52.073Z,38.40
2023-11-23T05:28:25.383Z,38.30
2023-11-23T05:30:58.654Z,38.40
2023-11-23T05:33:31.767Z,38.40
2023-11-23T05:36:05.310Z,38.30
2023-11-23T05:38:39.835Z,38.30
2023-11-23T05:41:12.999Z,38.80
2023-11-23T05:43:46.955Z,38.20
2023-11-23T05:46:20.149Z,38.10
2023-11-23T05:48:53.352Z,38.10
2023-11-23T05:51:26.455Z,38.10
2023-11-23T05:54:00.979Z,38.10
2023-11-23T05:56:35.009Z,38.10
2023-11-23T05:59:08.354Z,38.10
2023-11-23T06:01:41.472Z,38.10
2023-11-23T06:04:14.632Z,38.00
2023-11-23T06:06:47.816Z,38.00
2023-11-23T06:09:22.282Z,38.00
2023-11-23T06:11:55.407Z,38.00
2023-11-23T06:14:28.470Z,38.40
2023-11-23T06:17:01.614Z,37.70
2023-11-23T06:19:34.760Z,37.70
2023-11-23T06:22:07.915Z,37.80
2023-11-23T06:24:42.333Z,38.00
2023-11-23T06:27:15.495Z,38.40
2023-11-23T06:29:48.605Z,38.80
2023-11-23T06:32:21.714Z,39.80
2023-11-23T06:34:54.790Z,41.00
2023-11-23T06:37:27.859Z,41.50
2023-11-23T06:40:02.338Z,42.00
2023-11-23T06:42:37.265Z,42.70
2023-11-23T06:45:14.776Z,43.00
2023-11-23T06:47:48.189Z,43.50
2023-11-23T06:50:21.838Z,44.20
2023-11-23T06:52:54.929Z,44.60
2023-11-23T06:55:29.433Z,44.90
2023-11-23T06:58:02.743Z,45.10
2023-11-23T07:00:35.869Z,45.20
2023-11-23T07:03:10.924Z,45.30
2023-11-23T07:05:43.979Z,45.20
2023-11-23T07:08:17.095Z,45.20
2023-11-23T07:10:51.512Z,45.40
2023-11-23T07:13:24.606Z,45.50
2023-11-23T07:16:00.208Z,45.50
2023-11-23T07:18:33.787Z,45.30
2023-11-23T07:21:08.212Z,45.10
2023-11-23T07:23:41.489Z,44.40
2023-11-23T07:26:16.182Z,44.30
2023-11-23T07:28:49.556Z,44.10
2023-11-23T07:31:23.399Z,43.90
2023-11-23T07:33:56.735Z,43.80
2023-11-23T07:36:31.297Z,43.60
2023-11-23T07:39:04.748Z,43.50
2023-11-23T07:41:39.197Z,43.40
2023-11-23T07:44:12.262Z,43.40
2023-11-23T07:46:48.076Z,43.50
2023-11-23T07:49:21.151Z,43.40
2023-11-23T07:51:56.275Z,43.60
2023-11-23T07:54:29.968Z,43.50
2023-11-23T07:57:04.583Z,43.50
2023-11-23T07:59:37.998Z,43.80
2023-11-23T08:02:11.211Z,43.60
2023-11-23T08:04:45.416Z,43.60
2023-11-23T08:07:18.534Z,43.60
2023-11-23T08:09:52.671Z,43.40
2023-11-23T08:12:27.693Z,43.50
2023-11-23T08:15:01.239Z,43.40
2023-11-23T08:17:34.411Z,43.20
2023-11-23T08:20:08.934Z,42.60
2023-11-23T08:22:42.054Z,37.70
2023-11-23T08:25:15.119Z,33.20
2023-11-23T08:27:49.572Z,33.00
2023-11-23T08:30:23.516Z,33.40
2023-11-23T08:33:00.200Z,33.50
2023-11-23T08:35:33.438Z,33.90
2023-11-23T08:38:06.522Z,34.40
2023-11-23T08:40:40.190Z,34.90
2023-11-23T08:43:14.853Z,35.50
2023-11-23T08:45:48.398Z,35.80
2023-11-23T08:48:23.708Z,36.30
2023-11-23T08:50:57.127Z,36.60
2023-11-23T08:53:30.388Z,36.80
2023-11-23T08:56:03.511Z,37.60
2023-11-23T08:58:38.121Z,37.20
2023-11-23T09:01:11.661Z,37.70
2023-11-23T09:03:45.046Z,38.00
2023-11-23T09:06:19.838Z,38.30
2023-11-23T09:08:53.233Z,38.50
2023-11-23T09:11:27.205Z,38.80
2023-11-23T09:14:03.644Z,39.00
2023-11-23T09:16:36.805Z,39.20
2023-11-23T09:19:10.258Z,39.80
2023-11-23T09:21:47.444Z,40.10
2023-11-23T09:24:20.872Z,40.50
2023-11-23T09:26:54.130Z,40.80
2023-11-23T09:29:28.627Z,40.80
2023-11-23T09:32:01.754Z,40.90
2023-11-23T09:34:34.979Z,40.50
2023-11-23T09:37:08.045Z,40.70
2023-11-23T09:39:41.202Z,40.70
2023-11-23T09:42:17.676Z,40.70
2023-11-23T09:44:57.583Z,40.60
2023-11-23T09:47:33.020Z,40.60
2023-11-23T09:50:07.764Z,40.60
2023-11-23T09:52:43.086Z,40.60
2023-11-23T09:55:17.669Z,40.60
2023-11-23T09:57:51.662Z,40.50
2023-11-23T10:00:26.281Z,40.50
2023-11-23T10:02:59.803Z,40.60
2023-11-23T10:05:34.374Z,40.70
2023-11-23T10:08:07.445Z,40.70
2023-11-23T10:10:40.483Z,40.80
2023-11-23T10:13:13.548Z,40.90
2023-11-23T10:15:49.466Z,40.80
2023-11-23T10:18:22.680Z,40.70
2023-11-23T10:20:57.723Z,40.60
2023-11-23T10:23:30.987Z,40.50
2023-11-23T10:26:04.278Z,40.10
2023-11-23T10:28:39.569Z,39.80
2023-11-23T10:31:14.317Z,39.60
2023-11-23T10:33:47.761Z,39.60
2023-11-23T10:36:24.537Z,39.60
2023-11-23T10:38:58.422Z,39.60
2023-11-23T10:41:31.477Z,39.60
2023-11-23T10:44:05.536Z,39.90
2023-11-23T10:46:40.903Z,39.50
2023-11-23T10:49:15.327Z,39.70
2023-11-23T10:51:48.883Z,39.80
2023-11-23T10:54:22.087Z,39.70
2023-11-23T10:56:58.164Z,39.70
2023-11-23T10:59:31.880Z,39.80
2023-11-23T11:02:08.461Z,39.80
2023-11-23T11:04:42.897Z,40.40
2023-11-23T11:07:17.027Z,39.90
2023-11-23T11:10:00.343Z,39.80
2023-11-23T11:12:39.000Z,40.00
2023-11-23T11:15:20.205Z,39.90
2023-11-23T11:18:07.785Z,39.90
2023-11-23T11:20:42.294Z,40.00
2023-11-23T11:23:15.434Z,39.80
2023-11-23T11:25:48.502Z,39.80
2023-11-23T11:28:21.964Z,39.80
2023-11-23T11:31:06.109Z,39.80
2023-11-23T11:33:40.442Z,40.00
2023-11-23T11:36:14.094Z,40.20
2023-11-23T11:38:54.854Z,39.80
2023-11-23T11:41:31.096Z,40.20
2023-11-23T11:44:05.230Z,39.80
2023-11-23T11:46:39.953Z,39.70
2023-11-23T11:49:14.409Z,39.70
2023-11-23T11:51:47.778Z,39.70
2023-11-23T11:54:22.984Z,39.70
2023-11-23T11:56:56.201Z,39.60
2023-11-23T11:59:31.298Z,39.60
2023-11-23T12:02:06.744Z,39.60
2023-11-23T12:04:42.527Z,39.50
2023-11-23T12:07:16.518Z,39.50
2023-11-23T12:09:55.517Z,39.50
2023-11-23T12:12:28.708Z,39.70
2023-11-23T12:15:01.958Z,39.70
2023-11-23T12:17:35.550Z,39.50
2023-11-23T12:20:11.645Z,39.50
2023-11-23T12:22:45.380Z,39.60
2023-11-23T12:27:52.134Z,39.50
2023-11-23T12:30:27.085Z,40.00
2023-11-23T12:33:00.255Z,39.60
2023-11-23T12:35:34.989Z,39.50
2023-11-23T12:38:08.855Z,39.60
2023-11-23T12:40:42.201Z,39.80
2023-11-23T12:43:16.061Z,40.10
2023-11-23T12:45:49.212Z,40.60
2023-11-23T12:48:22.394Z,40.70
2023-11-23T12:50:57.680Z,41.00
2023-11-23T12:53:31.006Z,40.80
2023-11-23T12:56:04.255Z,41.30
2023-11-23T12:58:39.072Z,41.40
2023-11-23T13:01:13.497Z,41.60
2023-11-23T13:03:46.855Z,41.60
2023-11-23T13:06:21.475Z,41.50
2023-11-23T13:08:54.596Z,41.30
2023-11-23T13:11:27.741Z,41.40
2023-11-23T13:14:00.809Z,41.60
2023-11-23T13:16:33.921Z,41.30
2023-11-23T13:19:17.086Z,42.80
2023-11-23T13:22:02.272Z,43.60
2023-11-23T13:24:37.819Z,43.60
2023-11-23T13:27:13.467Z,43.30
2023-11-23T13:29:46.643Z,43.10
2023-11-23T13:32:20.588Z,43.00
2023-11-23T13:34:55.299Z,43.00
2023-11-23T13:37:29.958Z,43.10
2023-11-23T13:40:07.756Z,43.00
2023-11-23T13:42:42.350Z,43.20
2023-11-23T13:45:17.638Z,43.20
2023-11-23T13:47:52.385Z,43.60
2023-11-23T13:50:26.891Z,44.00
2023-11-23T13:53:02.330Z,44.00
2023-11-23T13:55:36.934Z,44.00
2023-11-23T13:58:10.004Z,44.00
2023-11-23T14:00:44.401Z,43.90
2023-11-23T14:03:18.007Z,43.80
2023-11-23T14:05:51.187Z,43.60
2023-11-23T14:08:25.598Z,43.60
2023-11-23T14:10:58.758Z,43.40
2023-11-23T14:13:31.976Z,43.30
2023-11-23T14:16:07.413Z,43.10
2023-11-23T14:18:42.927Z,43.10
2023-11-23T14:21:16.153Z,43.00
2023-11-23T14:23:51.203Z,42.80
2023-11-23T14:26:24.308Z,42.70
2023-11-23T14:28:57.403Z,42.70
2023-11-23T14:31:33.795Z,42.70
2023-11-23T14:34:07.264Z,42.50
2023-11-23T14:36:42.216Z,42.50
2023-11-23T14:39:18.557Z,42.70
2023-11-23T14:41:51.788Z,42.80
2023-11-23T14:44:25.220Z,42.90
2023-11-23T14:46:58.454Z,43.00
2023-11-23T14:49:31.861Z,43.20
2023-11-23T14:52:05.263Z,43.30
2023-11-23T14:54:40.084Z,43.30
2023-11-23T14:57:13.231Z,43.40
2023-11-23T14:59:46.416Z,43.50
2023-11-23T15:02:19.752Z,43.50
2023-11-23T15:04:52.899Z,43.40
2023-11-23T15:07:26.387Z,43.40
2023-11-23T15:10:00.778Z,43.00
2023-11-23T15:12:33.982Z,42.90
2023-11-23T15:15:08.631Z,42.60
2023-11-23T15:17:42.173Z,41.90
2023-11-23T15:20:15.474Z,41.20
2023-11-23T15:22:48.854Z,41.00
2023-11-23T15:25:23.312Z,40.60
2023-11-23T15:27:56.645Z,40.60
2023-11-23T15:30:30.163Z,40.50
2023-11-23T15:33:03.899Z,40.30
2023-11-23T15:35:38.609Z,40.50
2023-11-23T15:38:12.096Z,40.70
2023-11-23T15:40:46.591Z,40.60
2023-11-23T15:43:20.063Z,40.60
2023-11-23T15:45:53.316Z,41.20
2023-11-23T15:48:26.419Z,40.60
2023-11-23T15:51:00.224Z,40.50
2023-11-23T15:53:33.127Z,40.40
2023-11-23T15:56:09.009Z,40.90
2023-11-23T15:58:42.112Z,40.40
2023-11-23T16:01:15.222Z,40.30
2023-11-23T16:03:48.548Z,40.30
2023-11-23T16:06:21.876Z,40.20
2023-11-23T16:08:58.435Z,40.30
2023-11-23T16:11:33.082Z,40.20
2023-11-23T16:14:08.181Z,40.10
2023-11-23T16:16:42.214Z,40.10
2023-11-23T16:19:15.351Z,40.10
2023-11-23T16:21:48.435Z,40.00
2023-11-23T16:24:21.963Z,40.00
2023-11-23T16:26:56.415Z,40.10
2023-11-23T16:29:29.540Z,40.00
2023-11-23T16:32:02.631Z,40.00
2023-11-23T16:34:35.821Z,40.00
2023-11-23T16:37:11.406Z,40.00
2023-11-23T16:39:45.268Z,40.00
2023-11-23T16:42:19.785Z,39.90
2023-11-23T16:44:52.904Z,39.80
2023-11-23T16:47:26.002Z,39.80
2023-11-23T16:50:01.102Z,39.90
2023-11-23T16:52:34.975Z,39.90
2023-11-23T16:55:09.406Z,39.90
2023-11-23T16:57:44.109Z,39.80
2023-11-23T17:00:18.823Z,39.80
2023-11-23T17:02:52.040Z,39.80
2023-11-23T17:05:25.152Z,39.70
2023-11-23T17:07:58.456Z,39.80
2023-11-23T17:10:31.530Z,39.80
2023-11-23T17:13:07.369Z,39.80
2023-11-23T17:15:40.627Z,39.70
2023-11-23T17:18:14.442Z,39.70
2023-11-23T17:20:47.509Z,39.70
2023-11-23T17:23:20.832Z,40.30
2023-11-23T17:25:53.923Z,39.70
2023-11-23T17:28:28.381Z,39.70
2023-11-23T17:31:03.628Z,39.70
2023-11-23T17:33:38.082Z,39.60
2023-11-23T17:36:11.402Z,39.60
2023-11-23T17:38:45.699Z,39.50
2023-11-23T17:41:18.935Z,39.60
2023-11-23T17:43:53.420Z,39.50
2023-11-23T17:46:26.953Z,39.50
2023-11-23T17:49:00.097Z,39.50
2023-11-23T17:51:33.595Z,39.50
2023-11-23T17:54:07.425Z,39.50
2023-11-23T17:56:40.934Z,39.50
2023-11-23T17:59:26.172Z,39.90
2023-11-23T18:02:08.038Z,39.60
2023-11-23T18:04:41.135Z,40.10
2023-11-23T18:07:14.233Z,40.10
2023-11-23T18:09:47.816Z,40.10
2023-11-23T18:12:21.332Z,40.30
2023-11-23T18:14:55.818Z,40.40
2023-11-23T18:17:28.978Z,40.40
2023-11-23T18:20:02.099Z,40.50
2023-11-23T18:22:35.279Z,40.70
2023-11-23T18:25:09.054Z,40.70
2023-11-23T18:27:42.498Z,40.80
2023-11-23T18:30:17.636Z,41.00
2023-11-23T18:32:50.735Z,41.10
2023-11-23T18:35:24.689Z,41.10
2023-11-23T18:37:57.806Z,41.10
2023-11-23T18:40:31.392Z,41.10
2023-11-23T18:43:05.099Z,41.20
2023-11-23T18:45:41.659Z,41.50
2023-11-23T18:48:16.034Z,42.30
2023-11-23T18:50:49.514Z,42.20
2023-11-23T18:53:22.709Z,42.40
2023-11-23T18:55:56.303Z,42.50
2023-11-23T18:58:29.621Z,42.50
2023-11-23T19:01:04.345Z,42.60
2023-11-23T19:03:37.959Z,42.70
2023-11-23T19:06:11.092Z,43.00
2023-11-23T19:08:44.217Z,43.10
2023-11-23T19:11:17.271Z,43.20
2023-11-23T19:13:50.607Z,43.30
2023-11-23T19:16:25.466Z,43.30
2023-11-23T19:19:01.091Z,43.50
2023-11-23T19:21:35.691Z,43.40
2023-11-23T19:24:10.303Z,43.60
2023-11-23T19:26:44.076Z,43.70
2023-11-23T19:29:17.701Z,43.70
2023-11-23T19:31:53.281Z,43.70
2023-11-23T19:34:27.350Z,43.70
2023-11-23T19:37:01.283Z,43.90
2023-11-23T19:39:35.135Z,44.00
2023-11-23T19:42:09.765Z,44.40
2023-11-23T19:44:43.549Z,44.40
2023-11-23T19:47:18.357Z,44.40
2023-11-23T19:49:52.001Z,44.30
2023-11-23T19:52:29.190Z,44.60
2023-11-23T19:55:03.933Z,44.00
2023-11-23T19:57:37.671Z,44.00
2023-11-23T20:00:12.421Z,44.00
2023-11-23T20:02:47.421Z,44.10
2023-11-23T20:05:20.762Z,44.00
2023-11-23T20:07:54.765Z,44.00
2023-11-23T20:10:27.846Z,43.90
2023-11-23T20:13:00.900Z,43.80
2023-11-23T20:15:34.244Z,44.00
2023-11-23T20:18:08.930Z,45.10
2023-11-23T20:20:42.296Z,45.80
2023-11-23T20:23:15.360Z,45.90
2023-11-23T20:25:48.564Z,45.80
2023-11-23T20:28:22.283Z,45.50
2023-11-23T20:30:55.320Z,45.30
2023-11-23T20:33:29.875Z,45.50
2023-11-23T20:36:03.306Z,45.40
2023-11-23T20:38:43.638Z,45.50
2023-11-23T20:41:17.962Z,45.40
2023-11-23T20:43:52.084Z,45.50
2023-11-23T20:46:25.461Z,45.60
2023-11-23T20:49:01.978Z,45.70
2023-11-23T20:51:37.118Z,45.70
2023-11-23T20:54:10.214Z,45.80
2023-11-23T20:56:44.621Z,45.80
2023-11-23T20:59:18.325Z,46.00
2023-11-23T21:01:52.962Z,45.80
2023-11-23T21:04:31.080Z,45.70
2023-11-23T21:07:08.655Z,45.80
2023-11-23T21:09:42.452Z,45.80
2023-11-23T21:12:24.557Z,45.60
2023-11-23T21:15:01.934Z,45.60
2023-11-23T21:17:53.800Z,45.50
2023-11-23T21:20:29.242Z,45.50
2023-11-23T21:23:02.734Z,45.40
2023-11-23T21:25:38.137Z,45.40
2023-11-23T21:28:11.806Z,45.30
2023-11-23T21:30:45.043Z,45.20
2023-11-23T21:33:19.075Z,45.20
2023-11-23T21:35:53.663Z,45.30
2023-11-23T21:38:26.741Z,45.30
2023-11-23T21:40:59.790Z,45.30
2023-11-23T21:43:32.939Z,45.30
2023-11-23T21:46:06.056Z,45.30
2023-11-23T21:48:39.162Z,45.30
2023-11-23T21:51:20.024Z,45.20
2023-11-23T21:53:53.191Z,45.10
2023-11-23T21:56:26.421Z,45.00
2023-11-23T21:58:59.550Z,45.00
2023-11-23T22:01:34.880Z,45.00
2023-11-23T22:04:08.328Z,45.00
2023-11-23T22:06:42.803Z,45.00
2023-11-23T22:09:15.889Z,44.90
2023-11-23T22:11:51.535Z,44.80
2023-11-23T22:14:25.118Z,44.80
2023-11-23T22:16:59.642Z,44.80
2023-11-23T22:19:33.295Z,44.90
2023-11-23T22:22:10.191Z,44.90
2023-11-23T22:24:44.352Z,45.00
2023-11-23T22:27:18.122Z,45.00
2023-11-23T22:29:51.615Z,45.00
2023-11-23T22:32:28.280Z,45.00
2023-11-23T22:35:01.936Z,45.00
2023-11-23T22:37:37.128Z,44.80
2023-11-23T22:40:11.431Z,44.80
2023-11-23T22:42:45.063Z,44.70
2023-11-23T22:45:18.959Z,44.60
2023-11-23T22:47:52.115Z,45.10
2023-11-23T22:50:25.235Z,45.40
2023-11-23T22:52:59.660Z,46.30
2023-11-23T22:55:32.919Z,47.60
2023-11-23T22:58:05.987Z,48.20
2023-11-23T23:00:39.566Z,48.20
2023-11-23T23:03:13.453Z,48.10
2023-11-23T23:05:47.911Z,48.30
2023-11-23T23:08:23.239Z,48.50
2023-11-23T23:10:56.697Z,48.60
2023-11-23T23:13:29.756Z,48.50
2023-11-23T23:16:02.893Z,48.70
2023-11-23T23:18:36.433Z,48.90
2023-11-23T23:21:09.542Z,48.90
2023-11-23T23:23:44.117Z,48.90
2023-11-23T23:26:17.232Z,49.00
2023-11-23T23:28:50.795Z,49.00
2023-11-23T23:31:23.927Z,49.00
2023-11-23T23:33:57.250Z,49.00
2023-11-23T23:36:30.398Z,49.00
2023-11-23T23:39:05.005Z,49.00
2023-11-23T23:41:38.317Z,49.00
2023-11-23T23:44:11.381Z,49.10
2023-11-23T23:46:44.480Z,49.00
2023-11-23T23:49:18.481Z,48.90
2023-11-23T23:51:52.408Z,48.80
2023-11-23T23:54:26.856Z,48.70
2023-11-23T23:57:00.021Z,49.10
2023-11-23T23:59:33.230Z,48.50
